createdAt,value
2019-01-24T00:04:38.751Z,0.39
2019-01-24T00:09:41.226Z,0.24
2019-01-24T00:14:43.696Z,0.33
2019-01-24T00:19:46.221Z,0.26
2019-01-24T00:24:48.641Z,0.28
2019-01-24T00:29:51.105Z,0.28
2019-01-24T00:34:53.560Z,0.31
2019-01-24T00:39:56.014Z,0.43
2019-01-24T00:44:58.467Z,0.39
2019-01-24T00:50:00.921Z,0.29
2019-01-24T00:55:03.386Z,0.26
2019-01-24T01:00:05.856Z,0.27
2019-01-24T01:05:08.316Z,0.28
2019-01-24T01:10:10.779Z,0.22
2019-01-24T01:15:13.225Z,0.14
2019-01-24T01:20:15.698Z,0.16
2019-01-24T01:25:18.146Z,0.17
2019-01-24T01:30:20.628Z,0.20
2019-01-24T01:35:23.078Z,0.22
2019-01-24T01:40:25.531Z,0.39
2019-01-24T01:45:28.072Z,0.35
2019-01-24T01:50:30.527Z,0.34
2019-01-24T01:55:32.994Z,0.39
2019-01-24T02:00:35.445Z,0.47
2019-01-24T02:05:37.904Z,0.58
2019-01-24T02:10:40.353Z,0.47
2019-01-24T02:15:42.808Z,0.56
2019-01-24T02:20:45.266Z,0.55
2019-01-24T02:25:47.717Z,0.76
2019-01-24T02:30:50.168Z,0.74
2019-01-24T02:35:52.631Z,0.65
2019-01-24T02:40:55.080Z,0.47
2019-01-24T02:45:57.534Z,0.57
2019-01-24T02:50:59.989Z,0.68
2019-01-24T02:56:02.444Z,0.71
2019-01-24T03:01:04.890Z,0.84
2019-01-24T03:06:07.352Z,0.90
2019-01-24T03:11:09.832Z,0.83
2019-01-24T03:16:12.293Z,0.77
2019-01-24T03:21:14.785Z,0.71
2019-01-24T03:26:17.258Z,0.87
2019-01-24T03:31:19.724Z,0.71
2019-01-24T03:36:22.185Z,0.84
2019-01-24T03:41:24.641Z,0.77
2019-01-24T03:46:27.106Z,0.77
2019-01-24T03:51:29.568Z,0.78
2019-01-24T03:56:32.021Z,0.64
2019-01-24T04:01:34.500Z,0.78
2019-01-24T04:06:36.955Z,0.46
2019-01-24T04:11:39.414Z,0.46
2019-01-24T04:16:41.850Z,0.42
2019-01-24T04:21:44.321Z,0.43
2019-01-24T04:26:46.795Z,0.30
2019-01-24T04:31:49.249Z,0.35
2019-01-24T04:36:53.447Z,0.50
2019-01-24T04:41:54.163Z,0.52
2019-01-24T04:46:56.780Z,0.31
2019-01-24T04:51:59.229Z,0.22
2019-01-24T04:57:01.709Z,-0.05
2019-01-24T05:02:04.159Z,-0.11
2019-01-24T05:07:06.609Z,0.06
2019-01-24T05:12:09.072Z,0.02
2019-01-24T05:17:11.541Z,-0.19
2019-01-24T05:22:14.123Z,-0.18
2019-01-24T05:27:16.574Z,-0.15
2019-01-24T05:32:19.035Z,-0.30
2019-01-24T05:37:21.495Z,-0.40
2019-01-24T05:42:23.960Z,-0.49
2019-01-24T05:47:26.428Z,-0.61
2019-01-24T05:52:28.898Z,-0.66
2019-01-24T05:57:31.355Z,-0.58
2019-01-24T06:02:33.818Z,-0.68
2019-01-24T06:07:36.283Z,-0.85
2019-01-24T06:12:38.729Z,-0.85
2019-01-24T06:17:41.206Z,-0.93
2019-01-24T06:22:43.669Z,-0.89
2019-01-24T06:27:46.121Z,-0.76
2019-01-24T06:32:48.590Z,-0.73
2019-01-24T06:37:51.084Z,-0.73
2019-01-24T06:42:53.566Z,-0.77
2019-01-24T06:47:56.021Z,-0.70
2019-01-24T06:52:58.479Z,-0.74
2019-01-24T06:58:00.992Z,-0.60
2019-01-24T07:03:03.448Z,-0.48
2019-01-24T07:08:05.922Z,-0.37
2019-01-24T07:13:08.388Z,-0.38
2019-01-24T07:18:10.860Z,-0.25
2019-01-24T07:23:13.442Z,-0.07
2019-01-24T07:28:15.887Z,0.10
2019-01-24T07:33:18.481Z,0.06
2019-01-24T07:38:20.950Z,0.04
2019-01-24T07:43:23.399Z,0.01
2019-01-24T07:48:25.850Z,0.18
2019-01-24T07:53:28.300Z,0.42
2019-01-24T07:58:30.757Z,0.47
2019-01-24T08:03:33.200Z,0.40
2019-01-24T08:08:35.678Z,0.44
2019-01-24T08:13:38.136Z,0.30
2019-01-24T08:18:40.593Z,0.51
2019-01-24T08:23:43.057Z,0.65
2019-01-24T08:28:45.507Z,0.78
2019-01-24T08:33:47.968Z,0.86
2019-01-24T08:38:50.421Z,1.03
2019-01-24T08:43:52.877Z,1.07
2019-01-24T08:48:55.342Z,1.05
2019-01-24T08:53:57.807Z,1.20
2019-01-24T08:59:00.280Z,1.41
2019-01-24T09:04:02.757Z,1.67
2019-01-24T09:09:05.222Z,1.66
2019-01-24T09:14:07.806Z,1.60
2019-01-24T09:19:10.250Z,1.53
2019-01-24T09:24:12.711Z,2.04
2019-01-24T09:29:15.177Z,2.21
2019-01-24T09:34:17.634Z,2.57
2019-01-24T09:39:20.119Z,3.00
2019-01-24T09:44:22.557Z,2.94
2019-01-24T09:49:25.025Z,2.68
2019-01-24T09:54:27.455Z,2.89
2019-01-24T09:59:29.917Z,2.63
2019-01-24T10:04:32.380Z,2.83
2019-01-24T10:09:34.832Z,2.78
2019-01-24T10:14:37.293Z,2.50
2019-01-24T10:19:39.753Z,2.50
2019-01-24T10:24:42.214Z,2.68
2019-01-24T10:29:44.678Z,2.63
2019-01-24T10:34:47.136Z,2.96
2019-01-24T10:39:49.593Z,3.20
2019-01-24T10:44:52.059Z,3.08
2019-01-24T10:49:54.539Z,3.03
2019-01-24T10:54:57.148Z,3.34
2019-01-24T10:59:59.615Z,3.38
2019-01-24T11:05:02.096Z,3.51
2019-01-24T11:10:04.550Z,3.30
2019-01-24T11:15:09.864Z,3.17
2019-01-24T11:20:12.263Z,3.13
2019-01-24T11:25:14.730Z,2.91
2019-01-24T11:30:25.969Z,3.08
2019-01-24T11:35:31.145Z,3.17
2019-01-24T11:40:33.615Z,2.82
2019-01-24T11:45:36.082Z,2.98
2019-01-24T11:50:38.551Z,2.88
2019-01-24T11:55:41.049Z,2.46
2019-01-24T12:00:43.516Z,2.86
2019-01-24T12:05:45.979Z,2.89
2019-01-24T12:10:48.432Z,3.06
2019-01-24T12:15:50.910Z,3.35
2019-01-24T12:20:53.365Z,3.54
2019-01-24T12:25:55.855Z,3.35
2019-01-24T12:30:58.331Z,3.34
2019-01-24T12:36:00.795Z,3.12
2019-01-24T12:41:03.262Z,2.81
2019-01-24T12:46:05.716Z,2.86
2019-01-24T12:51:08.180Z,2.62
2019-01-24T12:56:10.684Z,2.69
2019-01-24T13:01:13.152Z,2.94
2019-01-24T13:06:15.667Z,2.84
2019-01-24T13:11:18.146Z,2.70
2019-01-24T13:16:20.629Z,2.76
2019-01-24T13:21:23.103Z,2.86
2019-01-24T13:26:25.592Z,2.66
2019-01-24T13:31:28.069Z,2.82
2019-01-24T13:36:30.565Z,2.56
2019-01-24T13:41:33.039Z,2.37
2019-01-24T13:46:35.521Z,2.38
2019-01-24T13:51:37.980Z,2.21
2019-01-24T13:56:40.466Z,2.19
2019-01-24T14:01:42.955Z,2.11
2019-01-24T14:06:45.430Z,2.03
2019-01-24T14:11:47.935Z,2.00
2019-01-24T14:16:50.426Z,2.03
2019-01-24T14:21:52.892Z,1.73
2019-01-24T14:26:55.368Z,1.76
2019-01-24T14:31:57.959Z,1.79
2019-01-24T14:37:01.000Z,1.91
2019-01-24T14:42:03.468Z,1.86
2019-01-24T14:47:05.928Z,1.69
2019-01-24T14:52:08.436Z,1.48
2019-01-24T14:57:10.926Z,1.41
2019-01-24T15:02:13.413Z,1.35
2019-01-24T15:07:15.890Z,1.37
2019-01-24T15:12:18.363Z,1.61
2019-01-24T15:17:20.838Z,1.42
2019-01-24T15:22:23.340Z,1.26
2019-01-24T15:27:25.789Z,1.30
2019-01-24T15:32:28.278Z,1.29
2019-01-24T15:37:30.747Z,1.22
2019-01-24T15:42:33.237Z,1.17
2019-01-24T15:47:35.723Z,1.24
2019-01-24T15:52:38.213Z,1.25
2019-01-24T15:57:40.689Z,1.16
2019-01-24T16:02:43.159Z,1.25
2019-01-24T16:07:45.661Z,1.05
2019-01-24T16:12:48.124Z,0.96
2019-01-24T16:17:50.587Z,0.83
2019-01-24T16:22:53.093Z,0.77
2019-01-24T16:27:55.613Z,0.82
2019-01-24T16:32:58.047Z,1.09
2019-01-24T16:38:00.525Z,1.03
2019-01-24T16:43:02.990Z,1.09
2019-01-24T16:48:05.566Z,1.08
2019-01-24T16:53:08.039Z,1.13
2019-01-24T16:58:10.514Z,0.89
2019-01-24T17:03:12.987Z,0.88
2019-01-24T17:08:16.725Z,0.88
2019-01-24T17:13:17.948Z,0.93
2019-01-24T17:18:20.402Z,0.81
2019-01-24T17:23:22.888Z,0.88
2019-01-24T17:28:25.351Z,0.74
2019-01-24T17:33:27.847Z,0.82
2019-01-24T17:38:30.336Z,0.81
2019-01-24T17:43:32.803Z,0.93
2019-01-24T17:48:35.313Z,1.07
2019-01-24T17:53:37.796Z,1.13
2019-01-24T17:58:40.282Z,1.22
2019-01-24T18:03:42.753Z,1.23
2019-01-24T18:08:45.292Z,1.13
2019-01-24T18:13:47.788Z,1.10
2019-01-24T18:18:50.262Z,1.16
2019-01-24T18:23:52.750Z,1.13
2019-01-24T18:28:55.256Z,1.20
2019-01-24T18:33:57.734Z,1.15
2019-01-24T18:39:00.226Z,1.12
2019-01-24T18:44:02.707Z,1.11
2019-01-24T18:49:05.220Z,1.10
2019-01-24T18:54:07.697Z,1.10
2019-01-24T18:59:10.189Z,1.13
2019-01-24T19:04:12.675Z,1.10
2019-01-24T19:09:15.186Z,1.16
2019-01-24T19:14:17.665Z,1.10
2019-01-24T19:19:20.151Z,1.11
2019-01-24T19:24:22.687Z,1.00
2019-01-24T19:29:25.183Z,1.13
2019-01-24T19:34:27.818Z,1.09
2019-01-24T19:39:30.318Z,1.05
2019-01-24T19:44:32.850Z,1.07
2019-01-24T19:49:35.317Z,1.06
2019-01-24T19:54:38.375Z,1.04
2019-01-24T19:59:41.978Z,1.00
2019-01-24T20:04:44.509Z,1.04
2019-01-24T20:09:46.981Z,1.09
2019-01-24T20:14:49.468Z,1.09
2019-01-24T20:19:51.970Z,1.03
2019-01-24T20:24:54.458Z,0.99
2019-01-24T20:29:56.944Z,0.93
2019-01-24T20:34:59.432Z,1.13
2019-01-24T20:40:01.941Z,1.11
2019-01-24T20:45:04.436Z,1.06
2019-01-24T20:50:06.898Z,1.03
2019-01-24T20:55:12.307Z,1.07
2019-01-24T21:00:17.829Z,1.04
2019-01-24T21:05:20.310Z,1.07
2019-01-24T21:10:22.779Z,1.00
2019-01-24T21:15:25.271Z,1.01
2019-01-24T21:20:27.761Z,1.08
2019-01-24T21:25:30.247Z,1.00
2019-01-24T21:30:35.360Z,1.00
2019-01-24T21:35:37.821Z,0.99
2019-01-24T21:40:40.401Z,0.95
2019-01-24T21:45:42.864Z,1.03
2019-01-24T21:50:45.345Z,0.94
2019-01-24T21:55:47.883Z,0.95
2019-01-24T22:00:50.365Z,0.91
2019-01-24T22:05:52.863Z,0.96
2019-01-24T22:10:55.341Z,1.00
2019-01-24T22:15:58.166Z,1.07
2019-01-24T22:21:00.626Z,1.01
2019-01-24T22:26:03.102Z,0.99
2019-01-24T22:31:05.573Z,1.04
2019-01-24T22:36:08.046Z,1.08
2019-01-24T22:41:10.508Z,1.12
2019-01-24T22:46:12.969Z,1.11
2019-01-24T22:51:15.452Z,1.06
2019-01-24T22:56:17.938Z,1.04
2019-01-24T23:01:32.208Z,1.07
2019-01-24T23:06:34.709Z,1.00
2019-01-24T23:11:37.152Z,1.08
2019-01-24T23:16:39.632Z,1.02
2019-01-24T23:21:42.072Z,1.08
2019-01-24T23:26:44.558Z,1.09
2019-01-24T23:31:46.991Z,1.06
2019-01-24T23:36:49.452Z,1.11
2019-01-24T23:41:51.893Z,1.06
2019-01-24T23:46:54.351Z,1.08
2019-01-24T23:51:56.965Z,1.07
2019-01-24T23:56:59.421Z,1.05
